createdAt,value
2023-10-28T00:00:58.918Z,992.89
2023-10-28T00:01:59.247Z,992.92
2023-10-28T00:02:59.647Z,992.85
2023-10-28T00:03:59.811Z,992.93
2023-10-28T00:05:00.318Z,992.90
2023-10-28T00:06:00.355Z,992.95
2023-10-28T00:07:00.690Z,992.95
2023-10-28T00:08:01.025Z,992.94
2023-10-28T00:09:01.295Z,992.96
2023-10-28T00:10:01.643Z,992.93
2023-10-28T00:11:01.990Z,992.94
2023-10-28T00:12:02.288Z,993.00
2023-10-28T00:13:02.571Z,993.02
2023-10-28T00:14:02.968Z,992.96
2023-10-28T00:15:03.161Z,992.96
2023-10-28T00:16:03.532Z,992.97
2023-10-28T00:17:03.809Z,992.99
2023-10-28T00:18:04.186Z,992.97
2023-10-28T00:19:04.329Z,992.99
2023-10-28T00:20:04.713Z,992.96
2023-10-28T00:21:04.996Z,992.95
2023-10-28T00:22:05.271Z,992.94
2023-10-28T00:23:05.609Z,993.00
2023-10-28T00:24:05.869Z,992.98
2023-10-28T00:25:06.208Z,992.99
2023-10-28T00:26:06.574Z,993.01
2023-10-28T00:27:06.767Z,992.97
2023-10-28T00:28:07.069Z,993.02
2023-10-28T00:29:07.427Z,993.02
2023-10-28T00:30:07.804Z,992.98
2023-10-28T00:31:08.026Z,992.99
2023-10-28T00:32:08.296Z,993.03
2023-10-28T00:33:08.644Z,993.05
2023-10-28T00:34:08.942Z,993.01
2023-10-28T00:35:09.330Z,993.01
2023-10-28T00:36:09.509Z,992.99
2023-10-28T00:37:09.879Z,993.08
2023-10-28T00:38:10.115Z,993.07
2023-10-28T00:39:10.317Z,993.10
2023-10-28T00:40:10.646Z,993.11
2023-10-28T00:41:11.011Z,993.08
2023-10-28T00:42:11.262Z,993.11
2023-10-28T00:43:11.606Z,993.06
2023-10-28T00:44:11.970Z,993.03
2023-10-28T00:45:12.257Z,993.09
2023-10-28T00:46:12.594Z,993.13
2023-10-28T00:47:12.766Z,993.05
2023-10-28T00:48:13.087Z,993.14
2023-10-28T00:49:13.385Z,993.07
2023-10-28T00:50:13.704Z,993.07
2023-10-28T00:51:14.020Z,993.10
2023-10-28T00:52:14.310Z,993.10
2023-10-28T00:53:14.661Z,993.13
2023-10-28T00:54:14.962Z,993.08
2023-10-28T00:55:15.279Z,993.11
2023-10-28T00:56:15.609Z,993.06
2023-10-28T00:57:15.893Z,993.12
2023-10-28T00:58:16.205Z,993.09
2023-10-28T00:59:16.551Z,993.14
2023-10-28T01:00:16.838Z,993.12
2023-10-28T01:01:17.205Z,993.07
2023-10-28T01:02:17.432Z,993.13
2023-10-28T01:03:17.819Z,993.12
2023-10-28T01:04:17.978Z,993.07
2023-10-28T01:05:18.310Z,993.11
2023-10-28T01:06:18.600Z,993.06
2023-10-28T01:07:18.926Z,993.08
2023-10-28T01:08:19.330Z,993.05
2023-10-28T01:09:19.506Z,993.07
2023-10-28T01:10:19.831Z,993.09
2023-10-28T01:11:20.199Z,993.04
2023-10-28T01:12:20.500Z,993.08
2023-10-28T01:13:20.789Z,993.09
2023-10-28T01:14:21.125Z,993.10
2023-10-28T01:15:21.430Z,993.07
2023-10-28T01:16:21.748Z,993.13
2023-10-28T01:17:22.051Z,993.10
2023-10-28T01:18:22.438Z,993.07
2023-10-28T01:19:22.627Z,993.07
2023-10-28T01:20:22.919Z,993.18
2023-10-28T01:21:23.329Z,993.08
2023-10-28T01:22:23.502Z,993.13
2023-10-28T01:23:23.823Z,993.17
2023-10-28T01:24:24.106Z,993.15
2023-10-28T01:25:24.401Z,993.12
2023-10-28T01:26:24.717Z,993.16
2023-10-28T01:27:25.053Z,993.10
2023-10-28T01:28:25.395Z,993.14
2023-10-28T01:29:25.575Z,993.15
2023-10-28T01:30:25.935Z,993.17
2023-10-28T01:31:26.283Z,993.11
2023-10-28T01:32:26.565Z,993.21
2023-10-28T01:33:26.865Z,993.16
2023-10-28T01:34:27.227Z,993.14
2023-10-28T01:35:27.572Z,993.18
2023-10-28T01:36:27.941Z,993.18
2023-10-28T01:37:28.192Z,993.16
2023-10-28T01:38:28.480Z,993.13
2023-10-28T01:39:28.866Z,993.18
2023-10-28T01:40:29.051Z,993.14
2023-10-28T01:41:29.424Z,993.20
2023-10-28T01:42:29.682Z,993.17
2023-10-28T01:43:30.004Z,993.17
2023-10-28T01:44:30.292Z,993.20
2023-10-28T01:45:30.545Z,993.17
2023-10-28T01:46:30.842Z,993.19
2023-10-28T01:47:31.209Z,993.19
2023-10-28T01:48:31.607Z,993.20
2023-10-28T01:49:32.640Z,993.16
2023-10-28T01:50:32.108Z,993.16
2023-10-28T01:51:32.391Z,993.16
2023-10-28T01:52:32.717Z,993.20
2023-10-28T01:53:32.925Z,993.19
2023-10-28T01:54:33.232Z,993.17
2023-10-28T01:55:33.469Z,993.17
2023-10-28T01:56:33.732Z,993.14
2023-10-28T01:57:33.910Z,993.17
2023-10-28T01:58:34.292Z,993.15
2023-10-28T01:59:34.617Z,993.13
2023-10-28T02:00:34.821Z,993.13
2023-10-28T02:01:35.157Z,993.12
2023-10-28T02:02:35.502Z,993.08
2023-10-28T02:03:35.865Z,993.12
2023-10-28T02:04:36.037Z,993.11
2023-10-28T02:05:36.256Z,993.11
2023-10-28T02:06:36.605Z,993.09
2023-10-28T02:07:37.042Z,993.10
2023-10-28T02:08:37.304Z,993.07
2023-10-28T02:09:37.512Z,993.15
2023-10-28T02:10:37.875Z,993.13
2023-10-28T02:11:38.092Z,993.14
2023-10-28T02:12:38.440Z,993.14
2023-10-28T02:13:38.817Z,993.20
2023-10-28T02:14:39.147Z,993.11
2023-10-28T02:15:39.523Z,993.11
2023-10-28T02:16:39.743Z,993.16
2023-10-28T02:17:40.193Z,993.18
2023-10-28T02:18:40.390Z,993.13
2023-10-28T02:19:40.671Z,993.07
2023-10-28T02:20:40.886Z,993.07
2023-10-28T02:21:41.181Z,993.16
2023-10-28T02:22:41.415Z,993.10
2023-10-28T02:23:41.596Z,993.12
2023-10-28T02:24:41.957Z,993.12
2023-10-28T02:25:42.294Z,993.11
2023-10-28T02:26:42.648Z,993.18
2023-10-28T02:27:42.893Z,993.12
2023-10-28T02:28:43.192Z,993.15
2023-10-28T02:29:43.395Z,993.17
2023-10-28T02:30:43.729Z,993.13
2023-10-28T02:31:44.118Z,993.20
2023-10-28T02:32:44.410Z,993.16
2023-10-28T02:33:44.663Z,993.17
2023-10-28T02:34:44.961Z,993.16
2023-10-28T02:35:45.171Z,993.11
2023-10-28T02:36:45.375Z,993.17
2023-10-28T02:37:45.759Z,993.16
2023-10-28T02:38:46.020Z,993.14
2023-10-28T02:39:46.626Z,993.16
2023-10-28T02:40:46.796Z,993.21
2023-10-28T02:41:47.020Z,993.15
2023-10-28T02:42:47.356Z,993.17
2023-10-28T02:43:47.745Z,993.19
2023-10-28T02:44:48.052Z,993.16
2023-10-28T02:45:48.388Z,993.18
2023-10-28T02:46:48.595Z,993.25
2023-10-28T02:47:48.988Z,993.26
2023-10-28T02:48:49.182Z,993.24
2023-10-28T02:49:49.604Z,993.23
2023-10-28T02:50:49.868Z,993.22
2023-10-28T02:51:50.086Z,993.25
2023-10-28T02:52:50.455Z,993.26
2023-10-28T02:53:50.816Z,993.29
2023-10-28T02:54:51.068Z,993.24
2023-10-28T02:55:51.314Z,993.26
2023-10-28T02:56:51.572Z,993.26
2023-10-28T02:57:51.778Z,993.27
2023-10-28T02:58:52.150Z,993.23
2023-10-28T02:59:52.405Z,993.27
2023-10-28T03:00:52.688Z,993.36
2023-10-28T03:01:52.896Z,993.28
2023-10-28T03:02:53.287Z,993.31
2023-10-28T03:03:53.525Z,993.30
2023-10-28T03:04:53.869Z,993.29
2023-10-28T03:05:54.022Z,993.35
2023-10-28T03:06:54.269Z,993.31
2023-10-28T03:07:54.637Z,993.30
2023-10-28T03:08:54.834Z,993.34
2023-10-28T03:09:55.045Z,993.31
2023-10-28T03:10:55.305Z,993.30
2023-10-28T03:11:55.533Z,993.34
2023-10-28T03:12:55.933Z,993.35
2023-10-28T03:13:56.269Z,993.34
2023-10-28T03:14:56.465Z,993.39
2023-10-28T03:15:56.866Z,993.38
2023-10-28T03:16:57.256Z,993.36
2023-10-28T03:17:57.520Z,993.37
2023-10-28T03:18:57.754Z,993.32
2023-10-28T03:19:57.984Z,993.35
2023-10-28T03:20:58.318Z,993.34
2023-10-28T03:21:58.594Z,993.33
2023-10-28T03:22:58.924Z,993.31
2023-10-28T03:23:59.139Z,993.36
2023-10-28T03:24:59.463Z,993.31
2023-10-28T03:25:59.856Z,993.35
2023-10-28T03:27:00.085Z,993.28
2023-10-28T03:28:00.299Z,993.28
2023-10-28T03:29:00.579Z,993.36
2023-10-28T03:30:00.803Z,993.33
2023-10-28T03:31:01.139Z,993.33
2023-10-28T03:32:01.388Z,993.37
2023-10-28T03:33:01.641Z,993.32
2023-10-28T03:34:01.905Z,993.35
2023-10-28T03:35:02.181Z,993.45
2023-10-28T03:36:02.415Z,993.42
2023-10-28T03:37:02.627Z,993.46
2023-10-28T03:38:03.031Z,993.41
2023-10-28T03:39:03.291Z,993.43
2023-10-28T03:40:03.550Z,993.49
2023-10-28T03:41:03.786Z,993.47
2023-10-28T03:42:04.110Z,993.43
2023-10-28T03:43:04.339Z,993.54
2023-10-28T03:44:04.703Z,993.49
2023-10-28T03:45:04.915Z,993.48
2023-10-28T03:46:05.388Z,993.49
2023-10-28T03:47:05.655Z,993.50
2023-10-28T03:48:05.870Z,993.51
2023-10-28T03:49:06.260Z,993.51
2023-10-28T03:50:06.473Z,993.54
2023-10-28T03:51:06.700Z,993.58
2023-10-28T03:52:06.917Z,993.52
2023-10-28T03:53:07.272Z,993.55
2023-10-28T03:54:07.654Z,993.50
2023-10-28T03:55:07.856Z,993.50
2023-10-28T03:56:08.202Z,993.53
2023-10-28T03:57:08.402Z,993.54
2023-10-28T03:58:08.643Z,993.48
2023-10-28T03:59:08.975Z,993.54
2023-10-28T04:00:09.215Z,993.61
2023-10-28T04:01:09.435Z,993.55
2023-10-28T04:02:09.789Z,993.57
2023-10-28T04:03:10.180Z,993.60
2023-10-28T04:04:10.395Z,993.58
2023-10-28T04:05:10.776Z,993.63
2023-10-28T04:06:10.925Z,993.68
2023-10-28T04:07:11.459Z,993.65
2023-10-28T04:08:11.592Z,993.61
2023-10-28T04:09:11.827Z,993.67
2023-10-28T04:10:12.047Z,993.69
2023-10-28T04:11:12.490Z,993.69
2023-10-28T04:12:12.525Z,993.68
2023-10-28T04:13:12.916Z,993.64
2023-10-28T04:14:13.319Z,993.63
2023-10-28T04:15:13.581Z,993.71
2023-10-28T04:16:13.880Z,993.73
2023-10-28T04:17:14.273Z,993.64
2023-10-28T04:18:14.453Z,993.69
2023-10-28T04:19:14.679Z,993.61
2023-10-28T04:20:15.078Z,993.76
2023-10-28T04:21:15.357Z,993.70
2023-10-28T04:22:15.712Z,993.75
2023-10-28T04:23:16.200Z,993.68
2023-10-28T04:24:16.447Z,993.70
2023-10-28T04:25:16.818Z,993.67
2023-10-28T04:26:17.000Z,993.67
2023-10-28T04:27:17.493Z,993.73
2023-10-28T04:28:17.535Z,993.63
2023-10-28T04:29:17.857Z,993.67
2023-10-28T04:30:17.941Z,993.72
2023-10-28T04:31:18.282Z,993.70
2023-10-28T04:32:18.537Z,993.72
2023-10-28T04:33:18.863Z,993.77
2023-10-28T04:34:19.241Z,993.70
2023-10-28T04:35:27.128Z,993.73
2023-10-28T04:36:20.769Z,993.76
2023-10-28T04:37:20.109Z,993.82
2023-10-28T04:38:20.426Z,993.72
2023-10-28T04:39:20.811Z,993.78
2023-10-28T04:40:20.955Z,993.80
2023-10-28T04:41:21.364Z,993.77
2023-10-28T04:42:21.607Z,993.81
2023-10-28T04:43:21.896Z,993.80
2023-10-28T04:44:22.103Z,993.74
2023-10-28T04:45:23.222Z,993.72
2023-10-28T04:46:22.798Z,993.79
2023-10-28T04:47:23.124Z,993.78
2023-10-28T04:48:23.295Z,993.76
2023-10-28T04:49:23.628Z,993.79
2023-10-28T04:50:24.015Z,993.78
2023-10-28T04:51:24.341Z,993.73
2023-10-28T04:52:24.589Z,993.78
2023-10-28T04:53:25.008Z,993.79
2023-10-28T04:54:25.121Z,993.79
2023-10-28T04:55:25.340Z,993.89
2023-10-28T04:56:25.778Z,993.87
2023-10-28T04:57:26.075Z,993.86
2023-10-28T04:58:26.356Z,993.90
2023-10-28T04:59:26.548Z,993.92
2023-10-28T05:00:27.112Z,993.97
2023-10-28T05:01:27.375Z,993.91
2023-10-28T05:02:28.203Z,993.92
2023-10-28T05:03:27.824Z,993.91
2023-10-28T05:04:28.147Z,993.97
2023-10-28T05:05:28.317Z,993.97
2023-10-28T05:06:28.686Z,993.95
2023-10-28T05:07:28.879Z,994.01
2023-10-28T05:08:29.295Z,994.04
2023-10-28T05:09:29.545Z,993.97
2023-10-28T05:10:32.068Z,994.04
2023-10-28T05:11:30.245Z,994.03
2023-10-28T05:12:30.398Z,994.03
2023-10-28T05:13:30.739Z,993.99
2023-10-28T05:14:31.117Z,994.01
2023-10-28T05:15:31.330Z,994.00
2023-10-28T05:16:31.564Z,993.97
2023-10-28T05:17:31.920Z,993.94
2023-10-28T05:18:32.105Z,993.96
2023-10-28T05:19:32.416Z,993.93
2023-10-28T05:20:32.738Z,993.96
2023-10-28T05:21:33.119Z,993.89
2023-10-28T05:22:33.396Z,993.92
2023-10-28T05:23:33.760Z,993.93
2023-10-28T05:24:34.033Z,993.92
2023-10-28T05:25:34.211Z,993.89
2023-10-28T05:26:34.488Z,993.95
2023-10-28T05:27:34.744Z,993.94
2023-10-28T05:28:35.088Z,993.95
2023-10-28T05:29:35.393Z,994.02
2023-10-28T05:30:35.703Z,993.97
2023-10-28T05:31:36.011Z,993.97
2023-10-28T05:32:36.314Z,994.00
2023-10-28T05:33:36.605Z,994.05
2023-10-28T05:34:36.834Z,994.02
2023-10-28T05:35:37.215Z,994.04
2023-10-28T05:36:37.453Z,994.07
2023-10-28T05:37:37.655Z,994.11
2023-10-28T05:38:37.999Z,994.06
2023-10-28T05:39:40.437Z,994.15
2023-10-28T05:40:38.500Z,994.14
2023-10-28T05:41:38.754Z,994.18
2023-10-28T05:42:39.109Z,994.18
2023-10-28T05:43:39.316Z,994.16
2023-10-28T05:44:39.588Z,994.15
2023-10-28T05:45:39.794Z,994.16
2023-10-28T05:46:40.144Z,994.15
2023-10-28T05:47:40.506Z,994.19
2023-10-28T05:48:40.788Z,994.17
2023-10-28T05:49:41.079Z,994.25
2023-10-28T05:50:41.363Z,994.21
2023-10-28T05:51:41.571Z,994.27
2023-10-28T05:52:41.938Z,994.28
2023-10-28T05:53:42.192Z,994.28
2023-10-28T05:54:42.391Z,994.29
2023-10-28T05:55:42.775Z,994.27
2023-10-28T05:56:43.185Z,994.25
2023-10-28T05:57:43.549Z,994.29
2023-10-28T05:58:43.927Z,994.30
2023-10-28T05:59:44.006Z,994.35
2023-10-28T06:00:44.354Z,994.38
2023-10-28T06:01:44.642Z,994.38
2023-10-28T06:02:44.924Z,994.43
2023-10-28T06:03:45.177Z,994.47
2023-10-28T06:04:45.502Z,994.45
2023-10-28T06:05:45.697Z,994.48
2023-10-28T06:06:46.038Z,994.46
2023-10-28T06:07:46.328Z,994.50
2023-10-28T06:08:46.547Z,994.55
2023-10-28T06:09:46.970Z,994.59
2023-10-28T06:10:47.144Z,994.60
2023-10-28T06:11:47.452Z,994.58
2023-10-28T06:12:47.736Z,994.61
2023-10-28T06:13:48.034Z,994.58
2023-10-28T06:14:48.549Z,994.66
2023-10-28T06:15:48.739Z,994.64
2023-10-28T06:16:48.849Z,994.67
2023-10-28T06:17:49.123Z,994.64
2023-10-28T06:18:49.474Z,994.71
2023-10-28T06:19:49.705Z,994.68
2023-10-28T06:20:49.979Z,994.74
2023-10-28T06:21:50.466Z,994.71
2023-10-28T06:22:51.009Z,994.73
2023-10-28T06:23:50.967Z,994.80
2023-10-28T06:24:51.134Z,994.80
2023-10-28T06:25:51.621Z,994.79
2023-10-28T06:26:51.783Z,994.81
2023-10-28T06:27:52.057Z,994.81
2023-10-28T06:28:52.322Z,994.82
2023-10-28T06:29:52.693Z,994.85
2023-10-28T06:30:52.990Z,994.84
2023-10-28T06:31:53.274Z,994.85
2023-10-28T06:32:54.041Z,994.93
2023-10-28T06:33:54.130Z,994.87
2023-10-28T06:34:54.166Z,994.93
2023-10-28T06:35:54.428Z,994.94
2023-10-28T06:36:55.147Z,994.91
2023-10-28T06:37:55.143Z,994.97
2023-10-28T06:38:55.457Z,994.97
2023-10-28T06:39:55.639Z,995.02
2023-10-28T06:40:56.121Z,994.93
2023-10-28T06:41:56.253Z,994.98
2023-10-28T06:42:56.479Z,994.97
2023-10-28T06:43:56.638Z,995.02
2023-10-28T06:44:57.048Z,995.02
2023-10-28T06:45:57.384Z,995.01
2023-10-28T06:46:57.597Z,995.09
2023-10-28T06:47:58.015Z,995.08
2023-10-28T06:48:58.200Z,995.04
2023-10-28T06:49:58.440Z,995.07
2023-10-28T06:50:58.669Z,995.09
2023-10-28T06:51:59.001Z,995.03
2023-10-28T06:52:59.385Z,995.08
2023-10-28T06:53:59.577Z,995.00
2023-10-28T06:54:59.924Z,995.05
2023-10-28T06:56:00.322Z,995.02
2023-10-28T06:57:00.517Z,995.04
2023-10-28T06:58:00.793Z,995.09
2023-10-28T06:59:01.182Z,995.11
2023-10-28T07:00:01.290Z,995.09
2023-10-28T07:01:01.539Z,995.12
2023-10-28T07:02:01.905Z,995.13
2023-10-28T07:03:02.133Z,995.15
2023-10-28T07:04:02.415Z,995.18
2023-10-28T07:05:02.653Z,995.16
2023-10-28T07:06:02.903Z,995.19
2023-10-28T07:07:03.148Z,995.15
2023-10-28T07:08:03.481Z,995.14
2023-10-28T07:09:03.721Z,995.19
2023-10-28T07:10:04.240Z,995.18
2023-10-28T07:11:04.377Z,995.12
2023-10-28T07:12:04.675Z,995.14
2023-10-28T07:13:05.081Z,995.15
2023-10-28T07:14:05.356Z,995.17
2023-10-28T07:15:05.540Z,995.15
2023-10-28T07:16:05.955Z,995.22
2023-10-28T07:17:06.194Z,995.19
2023-10-28T07:18:06.643Z,995.18
2023-10-28T07:19:06.745Z,995.15
2023-10-28T07:20:07.179Z,995.24
2023-10-28T07:21:07.388Z,995.25
2023-10-28T07:22:07.641Z,995.20
2023-10-28T07:23:07.934Z,995.25
2023-10-28T07:24:08.190Z,995.21
2023-10-28T07:25:08.505Z,995.21
2023-10-28T07:26:08.790Z,995.33
2023-10-28T07:27:09.023Z,995.25
2023-10-28T07:28:09.355Z,995.29
2023-10-28T07:29:09.703Z,995.30
2023-10-28T07:30:10.000Z,995.33
2023-10-28T07:31:10.331Z,995.37
2023-10-28T07:32:10.657Z,995.40
2023-10-28T07:33:10.886Z,995.34
2023-10-28T07:34:11.155Z,995.42
2023-10-28T07:35:11.469Z,995.44
2023-10-28T07:36:11.746Z,995.48
2023-10-28T07:37:12.064Z,995.46
2023-10-28T07:38:12.449Z,995.51
2023-10-28T07:39:12.734Z,995.47
2023-10-28T07:40:13.041Z,995.52
2023-10-28T07:41:13.392Z,995.51
2023-10-28T07:42:13.689Z,995.60
2023-10-28T07:43:13.909Z,995.53
2023-10-28T07:44:14.254Z,995.52
2023-10-28T07:45:14.509Z,995.61
2023-10-28T07:46:14.851Z,995.64
2023-10-28T07:47:15.145Z,995.64
2023-10-28T07:48:15.517Z,995.72
2023-10-28T07:49:15.818Z,995.72
2023-10-28T07:50:16.127Z,995.69
2023-10-28T07:51:16.412Z,995.68
2023-10-28T07:52:16.690Z,995.69
2023-10-28T07:53:16.972Z,995.74
2023-10-28T07:54:17.241Z,995.71
2023-10-28T07:55:17.543Z,995.76
2023-10-28T07:56:17.866Z,995.70
2023-10-28T07:57:18.154Z,995.70
2023-10-28T07:58:18.381Z,995.79
2023-10-28T07:59:18.747Z,995.81
2023-10-28T08:00:18.885Z,995.76
2023-10-28T08:01:19.204Z,995.79
2023-10-28T08:02:19.857Z,995.83
2023-10-28T08:03:19.868Z,995.80
2023-10-28T08:04:20.030Z,995.79
2023-10-28T08:05:20.487Z,995.81
2023-10-28T08:06:34.174Z,995.82
2023-10-28T08:07:21.980Z,995.82
2023-10-28T08:08:21.390Z,995.83
2023-10-28T08:09:21.592Z,995.90
2023-10-28T08:10:21.938Z,995.93
2023-10-28T08:11:22.340Z,995.93
2023-10-28T08:12:22.659Z,995.95
2023-10-28T08:13:23.047Z,995.91
2023-10-28T08:14:23.236Z,995.98
2023-10-28T08:15:23.521Z,995.94
2023-10-28T08:16:31.569Z,995.93
2023-10-28T08:17:25.417Z,995.94
2023-10-28T08:18:24.335Z,995.96
2023-10-28T08:19:24.604Z,995.93
2023-10-28T08:20:24.889Z,995.95
2023-10-28T08:21:25.064Z,995.94
2023-10-28T08:22:25.438Z,996.01
2023-10-28T08:23:25.694Z,996.00
2023-10-28T08:24:26.077Z,996.04
2023-10-28T08:25:26.416Z,995.99
2023-10-28T08:26:26.679Z,996.03
2023-10-28T08:27:26.942Z,996.08
2023-10-28T08:28:27.218Z,996.03
2023-10-28T08:29:27.539Z,996.02
2023-10-28T08:30:29.297Z,996.08
2023-10-28T08:31:28.019Z,996.06
2023-10-28T08:32:28.433Z,996.08
2023-10-28T08:33:28.580Z,996.03
2023-10-28T08:34:28.879Z,996.07
2023-10-28T08:35:29.218Z,996.04
2023-10-28T08:36:29.593Z,996.14
2023-10-28T08:37:29.746Z,996.06
2023-10-28T08:38:30.065Z,996.09
2023-10-28T08:39:30.280Z,996.06
2023-10-28T08:40:30.664Z,996.09
2023-10-28T08:41:30.924Z,996.14
2023-10-28T08:42:31.185Z,996.06
2023-10-28T08:43:31.469Z,996.13
2023-10-28T08:44:31.714Z,996.13
2023-10-28T08:45:32.056Z,996.08
2023-10-28T08:46:32.311Z,996.11
2023-10-28T08:47:32.696Z,996.06
2023-10-28T08:48:32.958Z,996.06
2023-10-28T08:49:33.184Z,996.10
2023-10-28T08:50:33.425Z,996.02
2023-10-28T08:51:33.659Z,996.09
2023-10-28T08:52:34.076Z,996.15
2023-10-28T08:53:34.329Z,996.09
2023-10-28T08:54:34.540Z,996.02
2023-10-28T08:55:34.791Z,996.08
2023-10-28T08:56:35.078Z,996.09
2023-10-28T08:57:35.309Z,996.14
2023-10-28T08:58:35.572Z,996.22
2023-10-28T08:59:35.835Z,996.21
2023-10-28T09:00:36.129Z,996.24
2023-10-28T09:01:36.428Z,996.24
2023-10-28T09:02:36.755Z,996.27
2023-10-28T09:03:37.025Z,996.23
2023-10-28T09:04:37.388Z,996.15
2023-10-28T09:05:37.608Z,996.21
2023-10-28T09:06:37.879Z,996.15
2023-10-28T09:07:38.168Z,996.26
2023-10-28T09:08:38.419Z,996.25
2023-10-28T09:09:38.897Z,996.25
2023-10-28T09:10:38.925Z,996.22
2023-10-28T09:11:39.219Z,996.25
2023-10-28T09:12:39.542Z,996.26
2023-10-28T09:13:39.792Z,996.31
2023-10-28T09:14:40.068Z,996.29
2023-10-28T09:15:40.426Z,996.34
2023-10-28T09:16:40.619Z,996.42
2023-10-28T09:17:41.016Z,996.41
2023-10-28T09:18:41.244Z,996.44
2023-10-28T09:19:41.487Z,996.51
2023-10-28T09:20:41.734Z,996.51
2023-10-28T09:21:41.956Z,996.53
2023-10-28T09:22:42.312Z,996.55
2023-10-28T09:23:42.666Z,996.55
2023-10-28T09:24:42.939Z,996.58
2023-10-28T09:25:43.211Z,996.63
2023-10-28T09:26:43.482Z,996.61
2023-10-28T09:27:43.777Z,996.60
2023-10-28T09:28:44.013Z,996.60
2023-10-28T09:29:44.524Z,996.61
2023-10-28T09:30:44.524Z,996.58
2023-10-28T09:31:44.790Z,996.57
2023-10-28T09:32:45.092Z,996.58
2023-10-28T09:33:45.377Z,996.61
2023-10-28T09:34:45.648Z,996.56
2023-10-28T09:35:45.870Z,996.61
2023-10-28T09:36:46.290Z,996.64
2023-10-28T09:37:46.547Z,996.68
2023-10-28T09:38:46.822Z,996.65
2023-10-28T09:39:47.249Z,996.70
2023-10-28T09:40:47.335Z,996.73
2023-10-28T09:41:47.563Z,996.72
2023-10-28T09:42:47.801Z,996.70
2023-10-28T09:43:48.090Z,996.78
2023-10-28T09:44:48.446Z,996.72
2023-10-28T09:45:48.656Z,996.74
2023-10-28T09:46:48.988Z,996.81
2023-10-28T09:47:49.307Z,996.78
2023-10-28T09:48:49.499Z,996.80
2023-10-28T09:49:49.796Z,996.79
2023-10-28T09:50:50.046Z,996.80
2023-10-28T09:51:50.281Z,996.80
2023-10-28T09:52:50.541Z,996.80
2023-10-28T09:53:50.799Z,996.80
2023-10-28T09:54:51.050Z,996.83
2023-10-28T09:55:51.318Z,996.82
2023-10-28T09:56:51.641Z,996.82
2023-10-28T09:57:51.836Z,996.83
2023-10-28T09:58:52.177Z,996.85
2023-10-28T09:59:52.419Z,996.85
2023-10-28T10:00:52.699Z,996.82
2023-10-28T10:01:52.927Z,996.81
2023-10-28T10:02:53.186Z,996.84
2023-10-28T10:03:53.472Z,996.88
2023-10-28T10:04:53.760Z,996.88
2023-10-28T10:05:53.929Z,996.94
2023-10-28T10:06:54.171Z,996.93
2023-10-28T10:07:54.461Z,996.97
2023-10-28T10:08:54.689Z,996.95
2023-10-28T10:09:54.949Z,996.97
2023-10-28T10:10:55.231Z,996.96
2023-10-28T10:11:55.554Z,996.94
2023-10-28T10:12:55.817Z,996.96
2023-10-28T10:13:56.103Z,997.00
2023-10-28T10:14:56.339Z,996.97
2023-10-28T10:16:04.358Z,996.97
2023-10-28T10:16:57.173Z,996.97
2023-10-28T10:17:57.543Z,996.94
2023-10-28T10:18:57.621Z,996.93
2023-10-28T10:19:57.845Z,996.85
2023-10-28T10:20:58.150Z,996.89
2023-10-28T10:21:58.503Z,996.86
2023-10-28T10:22:58.659Z,996.89
2023-10-28T10:23:58.894Z,996.90
2023-10-28T10:24:59.130Z,996.84
2023-10-28T10:25:59.477Z,996.90
2023-10-28T10:26:59.716Z,996.92
2023-10-28T10:27:59.995Z,996.94
2023-10-28T10:29:00.333Z,996.86
2023-10-28T10:30:00.551Z,996.90
2023-10-28T10:31:00.883Z,996.85
2023-10-28T10:32:01.141Z,996.88
2023-10-28T10:33:01.385Z,996.82
2023-10-28T10:34:01.615Z,996.85
2023-10-28T10:35:01.923Z,996.79
2023-10-28T10:36:02.216Z,996.82
2023-10-28T10:37:02.541Z,996.87
2023-10-28T10:38:02.892Z,996.82
2023-10-28T10:39:03.125Z,996.88
2023-10-28T10:40:03.317Z,996.83
2023-10-28T10:41:03.584Z,996.83
2023-10-28T10:42:03.848Z,996.86
2023-10-28T10:43:04.112Z,996.95
2023-10-28T10:44:04.623Z,996.86
2023-10-28T10:45:04.770Z,996.93
2023-10-28T10:46:05.123Z,996.96
2023-10-28T10:47:05.417Z,996.97
2023-10-28T10:48:05.703Z,996.93
2023-10-28T10:49:06.013Z,996.94
2023-10-28T10:50:06.316Z,996.93
2023-10-28T10:51:06.418Z,996.92
2023-10-28T10:52:06.717Z,996.92
2023-10-28T10:53:06.993Z,996.94
2023-10-28T10:54:07.308Z,996.91
2023-10-28T10:55:07.591Z,996.92
2023-10-28T10:56:07.904Z,996.94
2023-10-28T10:57:08.193Z,996.91
2023-10-28T10:58:08.523Z,997.00
2023-10-28T10:59:08.868Z,996.95
2023-10-28T11:00:09.099Z,996.92
2023-10-28T11:01:09.443Z,996.92
2023-10-28T11:02:09.730Z,996.98
2023-10-28T11:03:10.099Z,996.95
2023-10-28T11:04:10.295Z,996.98
2023-10-28T11:05:10.573Z,997.01
2023-10-28T11:06:10.872Z,996.93
2023-10-28T11:07:11.169Z,996.96
2023-10-28T11:08:11.488Z,996.97
2023-10-28T11:09:11.754Z,997.02
2023-10-28T11:10:12.037Z,997.00
2023-10-28T11:11:12.411Z,996.92
2023-10-28T11:12:12.629Z,996.95
2023-10-28T11:13:12.948Z,996.94
2023-10-28T11:14:13.271Z,996.96
2023-10-28T11:15:13.573Z,996.99
2023-10-28T11:16:13.808Z,996.95
2023-10-28T11:17:14.119Z,997.01
2023-10-28T11:18:14.470Z,996.97
2023-10-28T11:19:14.715Z,996.99
2023-10-28T11:20:14.985Z,996.97
2023-10-28T11:21:16.231Z,997.00
2023-10-28T11:22:15.555Z,997.01
2023-10-28T11:23:15.913Z,997.06
2023-10-28T11:24:16.164Z,997.00
2023-10-28T11:25:16.460Z,997.03
2023-10-28T11:26:16.758Z,997.06
2023-10-28T11:27:17.045Z,997.02
2023-10-28T11:28:17.383Z,997.01
2023-10-28T11:29:17.747Z,997.04
2023-10-28T11:30:17.898Z,997.11
2023-10-28T11:31:18.194Z,997.06
2023-10-28T11:32:18.532Z,997.05
2023-10-28T11:33:18.730Z,997.08
2023-10-28T11:34:18.978Z,997.06
2023-10-28T11:35:19.300Z,997.07
2023-10-28T11:36:19.604Z,997.07
2023-10-28T11:37:19.860Z,997.12
2023-10-28T11:38:20.225Z,997.16
2023-10-28T11:39:20.477Z,997.15
2023-10-28T11:40:20.760Z,997.13
2023-10-28T11:41:21.091Z,997.19
2023-10-28T11:42:21.350Z,997.21
2023-10-28T11:43:21.586Z,997.20
2023-10-28T11:44:21.897Z,997.27
2023-10-28T11:45:22.168Z,997.19
2023-10-28T11:46:22.631Z,997.20
2023-10-28T11:47:22.750Z,997.26
2023-10-28T11:48:23.007Z,997.23
2023-10-28T11:49:23.313Z,997.31
2023-10-28T11:50:23.563Z,997.25
2023-10-28T11:51:24.074Z,997.28
2023-10-28T11:52:24.075Z,997.23
2023-10-28T11:53:24.427Z,997.28
2023-10-28T11:54:24.682Z,997.28
2023-10-28T11:55:25.014Z,997.36
2023-10-28T11:56:25.304Z,997.30
2023-10-28T11:57:25.618Z,997.32
2023-10-28T11:58:25.864Z,997.34
2023-10-28T11:59:26.162Z,997.34
2023-10-28T12:00:26.486Z,997.31
2023-10-28T12:01:26.786Z,997.28
2023-10-28T12:02:27.053Z,997.36
2023-10-28T12:03:27.278Z,997.33
2023-10-28T12:04:27.715Z,997.36
2023-10-28T12:05:28.005Z,997.36
2023-10-28T12:06:30.762Z,997.33
2023-10-28T12:07:28.593Z,997.38
2023-10-28T12:08:29.044Z,997.39
2023-10-28T12:09:29.339Z,997.39
2023-10-28T12:10:29.693Z,997.33
2023-10-28T12:11:30.086Z,997.33
2023-10-28T12:12:30.193Z,997.36
2023-10-28T12:13:30.474Z,997.33
2023-10-28T12:14:30.764Z,997.34
2023-10-28T12:15:31.086Z,997.37
2023-10-28T12:16:31.318Z,997.35
2023-10-28T12:17:31.600Z,997.36
2023-10-28T12:18:31.829Z,997.36
2023-10-28T12:19:32.070Z,997.43
2023-10-28T12:20:32.398Z,997.38
2023-10-28T12:21:33.493Z,997.37
2023-10-28T12:22:32.946Z,997.37
2023-10-28T12:23:33.175Z,997.40
2023-10-28T12:24:33.526Z,997.44
2023-10-28T12:25:33.777Z,997.36
2023-10-28T12:26:34.097Z,997.43
2023-10-28T12:27:34.314Z,997.45
2023-10-28T12:28:34.571Z,997.46
2023-10-28T12:29:34.953Z,997.47
2023-10-28T12:30:35.149Z,997.45
2023-10-28T12:31:35.527Z,997.55
2023-10-28T12:32:35.807Z,997.54